Terminal Aerodrome Forecast
Issued by NWS

Home | Current Version | Previous Version | Text Only | Print | Product List | Glossary On
Versions: 1 2 3 4 5 6 7 8 9 10 11 12
000
FTUS46 KHNX 241700
TAFVIS
TAF
KVIS 241729Z 2418/2518 VRB03KT P6SM FEW200
     FM242200 32007KT P6SM SCT200
     FM250700 32010KT P6SM BKN200
     FM251000 32007KT P6SM BKN120
     FM251500 32009KT P6SM OVC090=

USA.gov is the U.S. government's official web portal to all federal, state and local government web resources and services.